createdAt,value
2017-11-29T00:01:27.108Z,99591.38
2017-11-29T00:03:54.503Z,99603.53
2017-11-29T00:06:21.896Z,99605.13
2017-11-29T00:08:49.292Z,99610.39
2017-11-29T00:11:16.680Z,99613.02
2017-11-29T00:13:44.080Z,99612.63
2017-11-29T00:16:11.476Z,99605.71
2017-11-29T00:18:38.871Z,99610.66
2017-11-29T00:21:06.265Z,99612.77
2017-11-29T00:23:33.647Z,99606.20
2017-11-29T00:26:01.048Z,99610.09
2017-11-29T00:28:28.440Z,99614.47
2017-11-29T00:30:55.931Z,99607.94
2017-11-29T00:33:23.318Z,99613.20
2017-11-29T00:35:50.705Z,99607.20
2017-11-29T00:38:18.086Z,99609.62
2017-11-29T00:40:45.552Z,99607.55
2017-11-29T00:43:13.008Z,99604.70
2017-11-29T00:45:40.424Z,99600.50
2017-11-29T00:48:07.800Z,99604.77
2017-11-29T00:50:35.286Z,99606.81
2017-11-29T00:53:02.660Z,99613.44
2017-11-29T00:55:30.053Z,99606.23
2017-11-29T00:57:57.440Z,99613.94
2017-11-29T01:00:24.832Z,99618.76
2017-11-29T01:02:52.224Z,99609.12
2017-11-29T01:05:19.627Z,99614.91
2017-11-29T01:07:47.039Z,99608.70
2017-11-29T01:10:14.519Z,99608.41
2017-11-29T01:12:41.988Z,99604.91
2017-11-29T01:15:09.400Z,99603.36
2017-11-29T01:17:36.784Z,99610.69
2017-11-29T01:20:04.172Z,99611.73
2017-11-29T01:22:31.592Z,99615.58
2017-11-29T01:24:58.971Z,99612.99
2017-11-29T01:27:26.373Z,99608.05
2017-11-29T01:29:53.761Z,99608.83
2017-11-29T01:32:21.155Z,99614.35
2017-11-29T01:34:48.539Z,99615.46
2017-11-29T01:37:15.937Z,99607.94
2017-11-29T01:39:43.330Z,99608.78
2017-11-29T01:42:10.728Z,99609.42
2017-11-29T01:44:38.124Z,99610.42
2017-11-29T01:47:05.513Z,99613.19
2017-11-29T01:49:32.899Z,99606.12
2017-11-29T01:52:00.352Z,99608.02
2017-11-29T01:54:27.748Z,99614.65
2017-11-29T01:56:55.170Z,99603.03
2017-11-29T01:59:22.560Z,99609.70
2017-11-29T02:10:22.888Z,99601.06
2017-11-29T02:12:50.346Z,99604.10
2017-11-29T02:15:17.731Z,99608.75
2017-11-29T02:17:45.115Z,99611.67
2017-11-29T02:20:12.516Z,99608.92
2017-11-29T02:22:39.977Z,99609.10
2017-11-29T02:25:07.468Z,99609.52
2017-11-29T02:27:34.849Z,99607.02
2017-11-29T02:30:02.232Z,99608.62
2017-11-29T02:32:29.730Z,99613.83
2017-11-29T02:34:57.163Z,99609.52
2017-11-29T02:37:24.604Z,99605.58
2017-11-29T02:40:03.840Z,99605.00
2017-11-29T02:42:37.811Z,99605.55
2017-11-29T02:45:05.201Z,99604.13
2017-11-29T02:47:32.656Z,99603.70
2017-11-29T02:50:00.125Z,99603.80
2017-11-29T02:52:27.508Z,99602.75
2017-11-29T02:54:54.922Z,99603.43
2017-11-29T02:57:22.298Z,99605.73
2017-11-29T02:59:49.709Z,99608.09
2017-11-29T03:02:17.119Z,99605.30
2017-11-29T03:04:44.519Z,99608.65
2017-11-29T03:07:11.908Z,99609.65
2017-11-29T03:09:39.313Z,99611.97
2017-11-29T03:12:06.697Z,99605.92
2017-11-29T03:14:34.194Z,99609.64
2017-11-29T03:17:01.597Z,99607.92
2017-11-29T03:19:28.980Z,99600.95
2017-11-29T03:21:56.372Z,99604.82
2017-11-29T03:24:23.768Z,99605.13
2017-11-29T03:26:51.156Z,99607.54
2017-11-29T03:29:18.597Z,99607.02
2017-11-29T03:31:45.977Z,99602.73
2017-11-29T03:34:13.367Z,99599.75
2017-11-29T03:36:40.756Z,99604.66
2017-11-29T03:39:08.237Z,99601.62
2017-11-29T03:41:35.619Z,99600.77
2017-11-29T03:44:03.017Z,99606.19
2017-11-29T03:46:30.405Z,99599.74
2017-11-29T03:48:57.806Z,99608.31
2017-11-29T03:51:25.188Z,99605.34
2017-11-29T03:53:52.571Z,99614.55
2017-11-29T03:56:19.963Z,99605.40
2017-11-29T03:58:47.347Z,99612.14
2017-11-29T04:01:14.749Z,99617.17
2017-11-29T04:03:42.193Z,99612.08
2017-11-29T04:06:09.583Z,99610.45
2017-11-29T04:08:36.995Z,99617.09
2017-11-29T04:11:04.391Z,99615.17
2017-11-29T04:13:31.772Z,99615.52
2017-11-29T04:15:59.170Z,99618.47
2017-11-29T04:18:26.554Z,99617.00
2017-11-29T04:20:53.950Z,99611.73
2017-11-29T04:23:21.345Z,99610.95
2017-11-29T04:25:48.715Z,99606.73
2017-11-29T04:28:16.103Z,99610.09
2017-11-29T04:30:43.606Z,99614.38
2017-11-29T04:33:10.991Z,99615.77
2017-11-29T04:35:38.389Z,99615.95
2017-11-29T04:38:05.855Z,99613.13
2017-11-29T04:40:33.250Z,99616.73
2017-11-29T04:43:00.637Z,99621.14
2017-11-29T04:45:28.132Z,99614.93
2017-11-29T04:47:55.591Z,99616.09
2017-11-29T04:50:23.001Z,99625.06
2017-11-29T04:52:50.373Z,99630.91
2017-11-29T04:55:17.780Z,99627.45
2017-11-29T04:57:45.202Z,99634.42
2017-11-29T05:00:12.583Z,99638.55
2017-11-29T05:02:39.982Z,99631.34
2017-11-29T05:05:07.368Z,99634.41
2017-11-29T05:07:34.832Z,99638.13
2017-11-29T05:10:02.228Z,99640.80
2017-11-29T05:12:29.624Z,99641.97
2017-11-29T05:14:57.012Z,99635.56
2017-11-29T05:17:24.423Z,99631.73
2017-11-29T05:19:51.794Z,99634.41
2017-11-29T05:22:19.196Z,99632.85
2017-11-29T05:24:46.588Z,99635.70
2017-11-29T05:27:13.984Z,99632.75
2017-11-29T05:29:41.367Z,99632.64
2017-11-29T05:32:08.788Z,99637.78
2017-11-29T05:34:36.182Z,99637.86
2017-11-29T05:37:03.574Z,99644.88
2017-11-29T05:39:30.956Z,99639.80
2017-11-29T05:41:58.412Z,99639.50
2017-11-29T05:44:25.795Z,99634.55
2017-11-29T05:46:53.225Z,99632.50
2017-11-29T05:49:20.606Z,99635.58
2017-11-29T05:51:48.005Z,99639.96
2017-11-29T05:54:15.388Z,99633.79
2017-11-29T05:56:42.883Z,99638.61
2017-11-29T05:59:10.291Z,99644.58
2017-11-29T06:01:37.699Z,99643.91
2017-11-29T06:04:05.092Z,99643.52
2017-11-29T06:06:32.480Z,99645.10
2017-11-29T06:08:59.884Z,99648.43
2017-11-29T06:11:27.283Z,99644.80
2017-11-29T06:13:54.780Z,99650.75
2017-11-29T06:16:22.227Z,99653.36
2017-11-29T06:18:49.623Z,99652.55
2017-11-29T06:21:17.003Z,99655.69
2017-11-29T06:23:44.399Z,99662.34
2017-11-29T06:26:11.788Z,99662.46
2017-11-29T06:28:39.197Z,99661.31
2017-11-29T06:31:06.594Z,99663.11
2017-11-29T06:33:33.980Z,99655.59
2017-11-29T06:36:01.375Z,99656.26
2017-11-29T06:38:28.768Z,99666.28
2017-11-29T06:40:56.183Z,99669.28
2017-11-29T06:43:23.572Z,99672.13
2017-11-29T06:45:50.951Z,99672.92
2017-11-29T06:48:18.503Z,99682.20
2017-11-29T06:50:45.875Z,99683.02
2017-11-29T06:53:13.263Z,99687.66
2017-11-29T06:55:40.648Z,99691.80
2017-11-29T06:58:08.076Z,99689.83
2017-11-29T07:00:35.529Z,99692.41
2017-11-29T07:03:02.948Z,99702.91
2017-11-29T07:05:30.336Z,99695.14
2017-11-29T07:07:57.720Z,99700.62
2017-11-29T07:10:25.186Z,99698.19
2017-11-29T07:12:52.576Z,99700.16
2017-11-29T07:15:20.060Z,99706.06
2017-11-29T07:17:47.444Z,99709.04
2017-11-29T07:20:14.844Z,99709.52
2017-11-29T07:22:42.491Z,99712.70
2017-11-29T07:25:09.887Z,99716.91
2017-11-29T07:27:37.305Z,99718.22
2017-11-29T07:30:04.788Z,99721.30
2017-11-29T07:32:32.252Z,99726.47
2017-11-29T07:34:59.647Z,99721.84
2017-11-29T07:37:27.076Z,99724.66
2017-11-29T07:39:54.465Z,99720.14
2017-11-29T07:42:21.847Z,99727.41
2017-11-29T07:44:49.259Z,99722.75
2017-11-29T07:47:16.669Z,99731.33
2017-11-29T07:49:44.071Z,99736.83
2017-11-29T07:52:11.499Z,99736.98
2017-11-29T07:54:38.889Z,99736.56
2017-11-29T07:57:06.320Z,99743.13
2017-11-29T07:59:33.764Z,99742.55
2017-11-29T08:02:01.148Z,99743.28
2017-11-29T08:04:28.573Z,99739.52
2017-11-29T08:06:55.964Z,99741.67
2017-11-29T08:09:23.351Z,99736.72
2017-11-29T08:11:50.739Z,99744.23
2017-11-29T08:14:18.138Z,99740.84
2017-11-29T08:16:45.563Z,99742.65
2017-11-29T08:19:12.941Z,99744.28
2017-11-29T08:21:40.331Z,99744.48
2017-11-29T08:24:07.722Z,99745.05
2017-11-29T08:26:35.132Z,99746.95
2017-11-29T08:29:02.585Z,99748.69
2017-11-29T08:31:29.985Z,99750.80
2017-11-29T08:33:57.392Z,99749.83
2017-11-29T08:36:24.914Z,99755.38
2017-11-29T08:38:52.296Z,99753.55
2017-11-29T08:41:19.688Z,99759.31
2017-11-29T08:43:47.067Z,99760.30
2017-11-29T08:46:14.469Z,99758.66
2017-11-29T08:48:41.900Z,99765.10
2017-11-29T08:51:09.285Z,99764.84
2017-11-29T08:53:36.736Z,99765.72
2017-11-29T08:56:04.132Z,99774.00
2017-11-29T08:58:31.516Z,99770.78
2017-11-29T09:00:58.911Z,99778.71
2017-11-29T09:03:26.360Z,99773.96
2017-11-29T09:05:53.811Z,99780.17
2017-11-29T09:08:21.263Z,99778.98
2017-11-29T09:10:48.668Z,99786.03
2017-11-29T09:13:16.056Z,99786.78
2017-11-29T09:15:43.448Z,99788.52
2017-11-29T09:18:10.891Z,99786.45
2017-11-29T09:20:38.279Z,99790.30
2017-11-29T09:23:05.676Z,99784.09
2017-11-29T09:25:33.069Z,99789.57
2017-11-29T09:28:00.463Z,99787.81
2017-11-29T09:30:27.854Z,99792.48
2017-11-29T09:32:55.321Z,99787.66
2017-11-29T09:35:22.796Z,99796.47
2017-11-29T09:37:50.188Z,99798.05
2017-11-29T09:40:17.567Z,99794.74
2017-11-29T09:42:44.960Z,99795.10
2017-11-29T09:45:12.352Z,99799.98
2017-11-29T09:47:39.760Z,99805.41
2017-11-29T09:50:07.155Z,99803.61
2017-11-29T09:52:34.547Z,99801.69
2017-11-29T09:55:01.949Z,99799.01
2017-11-29T09:57:29.337Z,99795.87
2017-11-29T09:59:56.724Z,99797.37
2017-11-29T10:02:24.110Z,99794.11
2017-11-29T10:04:51.531Z,99794.76
2017-11-29T10:07:18.927Z,99797.77
2017-11-29T10:12:13.107Z,99796.91
2017-11-29T10:14:40.551Z,99793.15
2017-11-29T10:17:07.947Z,99792.77
2017-11-29T10:19:35.351Z,99790.33
2017-11-29T10:22:02.751Z,99787.41
2017-11-29T10:24:30.312Z,99783.59
2017-11-29T10:26:57.709Z,99783.73
2017-11-29T10:29:25.199Z,99779.87
2017-11-29T10:31:52.640Z,99780.09
2017-11-29T10:34:20.037Z,99787.62
2017-11-29T10:36:47.423Z,99787.17
2017-11-29T10:39:14.900Z,99779.55
2017-11-29T10:41:42.306Z,99782.52
2017-11-29T10:44:09.693Z,99784.61
2017-11-29T10:46:37.163Z,99783.80
2017-11-29T10:49:04.588Z,99783.25
2017-11-29T10:51:31.982Z,99770.90
2017-11-29T10:53:59.428Z,99773.80
2017-11-29T10:56:26.833Z,99778.80
2017-11-29T10:58:54.231Z,99771.53
2017-11-29T11:01:21.621Z,99776.20
2017-11-29T11:03:49.013Z,99770.34
2017-11-29T11:06:16.396Z,99781.20
2017-11-29T11:08:43.868Z,99777.23
2017-11-29T11:11:11.325Z,99780.70
2017-11-29T11:13:38.719Z,99782.40
2017-11-29T11:16:06.139Z,99777.32
2017-11-29T11:18:33.539Z,99785.77
2017-11-29T11:21:00.915Z,99785.66
2017-11-29T11:23:28.314Z,99783.30
2017-11-29T11:25:55.707Z,99782.99
2017-11-29T11:28:23.092Z,99785.53
2017-11-29T11:30:50.489Z,99788.55
2017-11-29T11:33:17.871Z,99786.20
2017-11-29T11:35:45.276Z,99793.11
2017-11-29T11:38:12.732Z,99793.94
2017-11-29T11:40:40.124Z,99791.59
2017-11-29T11:43:07.562Z,99784.70
2017-11-29T11:45:34.953Z,99785.19
2017-11-29T11:48:02.373Z,99791.03
2017-11-29T11:50:29.732Z,99787.18
2017-11-29T11:52:57.112Z,99786.44
2017-11-29T11:55:24.516Z,99785.07
2017-11-29T11:57:51.903Z,99788.36
2017-11-29T12:00:19.292Z,99786.25
2017-11-29T12:02:46.684Z,99790.03
2017-11-29T12:05:14.089Z,99784.62
2017-11-29T12:07:41.497Z,99784.74
2017-11-29T12:10:08.948Z,99783.86
2017-11-29T12:12:36.340Z,99783.39
2017-11-29T12:15:03.727Z,99785.92
2017-11-29T12:17:31.222Z,99785.16
2017-11-29T12:19:58.608Z,99788.20
2017-11-29T12:22:25.997Z,99785.48
2017-11-29T12:24:53.485Z,99791.67
2017-11-29T12:27:20.871Z,99788.47
2017-11-29T12:29:48.259Z,99786.95
2017-11-29T12:32:15.762Z,99786.88
2017-11-29T12:34:43.148Z,99789.06
2017-11-29T12:37:10.568Z,99786.13
2017-11-29T12:39:37.945Z,99786.41
2017-11-29T12:42:05.367Z,99789.34
2017-11-29T12:44:32.727Z,99790.48
2017-11-29T12:47:00.186Z,99788.59
2017-11-29T12:49:39.512Z,99790.70
2017-11-29T12:52:06.913Z,99783.89
2017-11-29T12:54:34.324Z,99789.27
2017-11-29T12:57:01.725Z,99789.74
2017-11-29T12:59:29.104Z,99792.12
2017-11-29T13:01:56.514Z,99790.61
2017-11-29T13:04:23.891Z,99791.65
2017-11-29T13:06:51.283Z,99791.20
2017-11-29T13:09:18.724Z,99784.95
2017-11-29T13:11:46.121Z,99794.14
2017-11-29T13:14:13.513Z,99789.74
2017-11-29T13:16:40.891Z,99791.95
2017-11-29T13:19:08.339Z,99794.92
2017-11-29T13:21:35.804Z,99798.16
2017-11-29T13:24:03.188Z,99797.47
2017-11-29T13:26:30.578Z,99803.37
2017-11-29T13:28:57.971Z,99794.78
2017-11-29T13:31:25.382Z,99796.63
2017-11-29T13:33:52.885Z,99801.77
2017-11-29T13:36:20.271Z,99799.14
2017-11-29T13:38:47.661Z,99804.80
2017-11-29T13:41:15.144Z,99798.23
2017-11-29T13:43:42.537Z,99802.05
2017-11-29T13:46:09.928Z,99806.70
2017-11-29T13:48:37.409Z,99800.19
2017-11-29T13:51:04.822Z,99803.31
2017-11-29T13:53:32.191Z,99807.20
2017-11-29T13:55:59.573Z,99816.79
2017-11-29T13:58:26.955Z,99817.92
2017-11-29T14:00:54.343Z,99819.45
2017-11-29T14:03:21.848Z,99815.74
2017-11-29T14:05:49.305Z,99815.88
2017-11-29T14:08:16.692Z,99819.97
2017-11-29T14:10:44.094Z,99820.78
2017-11-29T14:13:11.493Z,99822.42
2017-11-29T14:15:38.924Z,99824.31
2017-11-29T14:18:06.321Z,99824.03
2017-11-29T14:20:33.703Z,99817.17
2017-11-29T14:23:01.100Z,99823.20
2017-11-29T14:25:28.476Z,99823.36
2017-11-29T14:27:55.870Z,99819.67
2017-11-29T14:30:23.269Z,99822.36
2017-11-29T14:32:50.676Z,99816.95
2017-11-29T14:35:18.068Z,99817.27
2017-11-29T14:37:45.464Z,99817.89
2017-11-29T14:40:12.861Z,99813.61
2017-11-29T14:42:40.244Z,99814.12
2017-11-29T14:45:07.668Z,99811.25
2017-11-29T14:47:35.051Z,99825.20
2017-11-29T14:50:02.458Z,99827.70
2017-11-29T14:52:29.831Z,99826.88
2017-11-29T14:54:57.327Z,99819.91
2017-11-29T14:57:24.712Z,99824.83
2017-11-29T14:59:52.099Z,99828.02
2017-11-29T15:02:19.488Z,99828.67
2017-11-29T15:04:46.876Z,99825.86
2017-11-29T15:07:14.267Z,99824.28
2017-11-29T15:09:41.663Z,99827.98
2017-11-29T15:12:09.056Z,99824.77
2017-11-29T15:14:36.448Z,99817.63
2017-11-29T15:17:03.872Z,99814.31
2017-11-29T15:19:32.144Z,99818.98
2017-11-29T15:21:59.596Z,99817.67
2017-11-29T15:24:26.996Z,99823.76
2017-11-29T15:26:54.380Z,99826.25
2017-11-29T15:29:21.883Z,99824.80
2017-11-29T15:31:49.274Z,99827.27
2017-11-29T15:34:16.664Z,99831.48
2017-11-29T15:36:44.086Z,99827.42
2017-11-29T15:39:11.482Z,99828.56
2017-11-29T15:41:38.863Z,99824.91
2017-11-29T15:44:06.303Z,99824.16
2017-11-29T15:46:33.707Z,99819.86
2017-11-29T15:49:01.091Z,99831.33
2017-11-29T15:51:28.487Z,99836.58
2017-11-29T15:53:55.866Z,99840.52
2017-11-29T15:56:23.257Z,99840.64
2017-11-29T15:58:50.651Z,99836.78
2017-11-29T16:01:18.047Z,99834.05
2017-11-29T16:03:45.439Z,99838.33
2017-11-29T16:06:12.894Z,99837.47
2017-11-29T16:08:40.355Z,99843.33
2017-11-29T16:11:07.803Z,99845.82
2017-11-29T16:13:35.200Z,99836.05
2017-11-29T16:16:02.592Z,99840.44
2017-11-29T16:18:29.982Z,99833.62
2017-11-29T16:20:57.376Z,99845.64
2017-11-29T16:23:24.768Z,99842.75
2017-11-29T16:25:52.170Z,99841.30
2017-11-29T16:28:19.554Z,99840.77
2017-11-29T16:30:46.953Z,99845.00
2017-11-29T16:33:14.366Z,99839.28
2017-11-29T16:35:41.759Z,99842.04
2017-11-29T16:38:09.144Z,99846.95
2017-11-29T16:40:36.547Z,99842.06
2017-11-29T16:43:03.953Z,99842.77
2017-11-29T16:45:31.383Z,99846.19
2017-11-29T16:47:58.779Z,99850.44
2017-11-29T16:50:26.164Z,99845.27
2017-11-29T16:52:53.555Z,99847.61
2017-11-29T16:55:21.002Z,99848.03
2017-11-29T16:57:48.395Z,99849.25
2017-11-29T17:00:15.796Z,99852.61
2017-11-29T17:02:43.192Z,99849.77
2017-11-29T17:05:10.579Z,99850.92
2017-11-29T17:07:37.993Z,99853.66
2017-11-29T17:10:05.368Z,99854.42
2017-11-29T17:12:32.776Z,99854.66
2017-11-29T17:15:00.164Z,99850.00
2017-11-29T17:17:27.601Z,99848.09
2017-11-29T17:19:54.979Z,99852.89
2017-11-29T17:22:22.372Z,99846.70
2017-11-29T17:24:49.767Z,99851.09
2017-11-29T17:27:17.160Z,99840.13
2017-11-29T17:30:11.593Z,99849.03
2017-11-29T17:32:38.992Z,99855.44
2017-11-29T17:35:06.373Z,99847.19
2017-11-29T17:37:33.761Z,99853.44
2017-11-29T17:40:01.224Z,99852.00
2017-11-29T17:42:28.603Z,99856.11
2017-11-29T17:44:56.267Z,99854.01
2017-11-29T17:47:23.705Z,99850.67
2017-11-29T17:49:51.088Z,99858.44
2017-11-29T17:52:18.495Z,99858.45
2017-11-29T17:54:45.961Z,99858.74
2017-11-29T17:57:13.343Z,99857.89
2017-11-29T17:59:40.741Z,99859.16
2017-11-29T18:02:08.147Z,99856.19
2017-11-29T18:04:35.543Z,99863.56
2017-11-29T18:07:02.943Z,99862.00
2017-11-29T18:09:30.419Z,99861.21
2017-11-29T18:11:57.792Z,99869.84
2017-11-29T18:14:25.184Z,99870.38
2017-11-29T18:16:52.571Z,99875.08
2017-11-29T18:19:19.960Z,99871.86
2017-11-29T18:21:47.432Z,99869.96
2017-11-29T18:24:14.828Z,99866.63
2017-11-29T18:26:42.223Z,99863.86
2017-11-29T18:29:09.616Z,99863.03
2017-11-29T18:31:37.002Z,99869.75
2017-11-29T18:34:04.540Z,99870.04
2017-11-29T18:36:31.928Z,99873.92
2017-11-29T18:38:59.430Z,99874.25
2017-11-29T18:41:26.810Z,99872.77
2017-11-29T18:43:54.231Z,99875.05
2017-11-29T18:46:21.634Z,99875.18
2017-11-29T18:48:49.008Z,99868.29
2017-11-29T18:51:16.396Z,99873.83
2017-11-29T18:53:43.780Z,99868.03
2017-11-29T18:56:11.214Z,99873.69
2017-11-29T18:58:38.598Z,99872.77
2017-11-29T19:01:06.027Z,99873.38
2017-11-29T19:03:33.423Z,99874.16
2017-11-29T19:06:00.914Z,99865.44
2017-11-29T19:08:28.424Z,99870.48
2017-11-29T19:10:55.837Z,99869.55
2017-11-29T19:13:23.223Z,99871.42
2017-11-29T19:15:50.612Z,99871.06
2017-11-29T19:18:18.005Z,99871.25
2017-11-29T19:20:45.472Z,99872.45
2017-11-29T19:23:12.873Z,99870.30
2017-11-29T19:25:40.285Z,99873.43
2017-11-29T19:28:07.732Z,99874.47
2017-11-29T19:30:35.130Z,99873.70
2017-11-29T19:35:29.203Z,99874.48
2017-11-29T19:37:56.645Z,99874.00
2017-11-29T19:40:24.043Z,99872.05
2017-11-29T19:42:51.430Z,99870.37
2017-11-29T19:45:18.911Z,99867.28
2017-11-29T19:47:46.367Z,99878.66
2017-11-29T19:50:13.764Z,99866.84
2017-11-29T19:52:41.158Z,99869.88
2017-11-29T19:55:08.627Z,99871.98
2017-11-29T19:57:36.027Z,99870.58
2017-11-29T20:00:04.050Z,99868.17
2017-11-29T20:02:31.460Z,99863.58
2017-11-29T20:04:58.851Z,99863.05
2017-11-29T20:07:26.248Z,99860.19
2017-11-29T20:09:53.651Z,99863.63
2017-11-29T20:12:21.032Z,99863.36
2017-11-29T20:14:48.432Z,99865.09
2017-11-29T20:17:15.823Z,99860.52
2017-11-29T20:19:43.220Z,99863.36
2017-11-29T20:22:10.627Z,99859.90
2017-11-29T20:24:40.828Z,99854.56
2017-11-29T20:27:08.248Z,99861.86
2017-11-29T20:29:35.638Z,99862.28
2017-11-29T20:32:03.147Z,99866.08
2017-11-29T20:34:30.594Z,99870.59
2017-11-29T20:36:58.065Z,99867.03
2017-11-29T20:39:25.443Z,99866.22
2017-11-29T20:41:52.878Z,99866.73
2017-11-29T20:44:20.264Z,99865.70
2017-11-29T20:46:47.651Z,99865.88
2017-11-29T20:49:15.048Z,99863.78
2017-11-29T20:51:42.484Z,99869.95
2017-11-29T20:54:09.948Z,99872.09
2017-11-29T20:56:37.349Z,99872.19
2017-11-29T20:59:04.772Z,99876.12
2017-11-29T21:01:32.187Z,99875.17
2017-11-29T21:03:59.683Z,99877.75
2017-11-29T21:06:27.077Z,99876.91
2017-11-29T21:08:54.576Z,99872.59
2017-11-29T21:11:21.983Z,99879.58
2017-11-29T21:13:49.367Z,99879.27
2017-11-29T21:18:43.443Z,99874.09
2017-11-29T21:21:10.833Z,99878.52
2017-11-29T21:26:29.095Z,99874.13
2017-11-29T21:28:56.488Z,99874.48
2017-11-29T21:31:23.873Z,99872.03
2017-11-29T21:33:51.276Z,99874.18
2017-11-29T21:36:18.659Z,99867.47
2017-11-29T21:38:46.047Z,99866.77
2017-11-29T21:41:13.444Z,99866.97
2017-11-29T21:43:40.885Z,99864.70
2017-11-29T21:46:08.296Z,99871.33
2017-11-29T21:48:35.680Z,99868.83
2017-11-29T21:51:03.071Z,99869.28
2017-11-29T21:53:30.463Z,99862.52
2017-11-29T21:55:57.855Z,99865.44
2017-11-29T21:58:25.261Z,99863.42
2017-11-29T22:00:52.636Z,99861.83
2017-11-29T22:03:20.040Z,99864.36
2017-11-29T22:05:47.436Z,99860.84
2017-11-29T22:08:14.832Z,99863.45
2017-11-29T22:10:42.280Z,99859.31
2017-11-29T22:13:09.668Z,99854.45
2017-11-29T22:15:37.065Z,99856.97
2017-11-29T22:18:04.457Z,99854.14
2017-11-29T22:20:31.920Z,99851.91
2017-11-29T22:22:59.302Z,99846.92
2017-11-29T22:25:26.715Z,99852.76
2017-11-29T22:27:54.131Z,99853.27
2017-11-29T22:30:21.519Z,99851.83
2017-11-29T22:32:48.976Z,99855.42
2017-11-29T22:35:16.435Z,99850.83
2017-11-29T22:37:43.832Z,99848.81
2017-11-29T22:40:11.225Z,99843.20
2017-11-29T22:42:38.613Z,99845.94
2017-11-29T22:45:06.082Z,99842.66
2017-11-29T22:47:33.462Z,99846.88
2017-11-29T22:50:00.871Z,99845.08
2017-11-29T22:52:28.315Z,99842.48
2017-11-29T22:54:55.717Z,99840.75
2017-11-29T22:57:23.099Z,99834.63
2017-11-29T22:59:50.499Z,99839.61
2017-11-29T23:02:17.947Z,99839.19
2017-11-29T23:04:45.341Z,99839.39
2017-11-29T23:07:12.726Z,99837.16
2017-11-29T23:09:40.212Z,99839.88
2017-11-29T23:12:07.596Z,99839.63
2017-11-29T23:14:34.988Z,99841.58
2017-11-29T23:17:02.380Z,99835.42
2017-11-29T23:19:29.765Z,99838.42
2017-11-29T23:21:57.160Z,99831.94
2017-11-29T23:24:24.554Z,99826.20
2017-11-29T23:26:51.944Z,99827.40
2017-11-29T23:29:19.352Z,99821.56
2017-11-29T23:31:46.806Z,99822.98
2017-11-29T23:34:14.193Z,99818.70
2017-11-29T23:36:41.678Z,99823.73
2017-11-29T23:39:09.066Z,99830.59
2017-11-29T23:41:36.458Z,99828.53
2017-11-29T23:44:03.844Z,99828.52
2017-11-29T23:46:31.247Z,99829.29
2017-11-29T23:48:58.640Z,99825.37
2017-11-29T23:51:26.044Z,99825.94
2017-11-29T23:53:53.426Z,99819.77
2017-11-29T23:56:20.820Z,99823.48
2017-11-29T23:58:48.276Z,99822.65
